createdAt,value
2018-09-08T00:00:54.453Z,12.10
2018-09-08T00:03:22.994Z,12.10
2018-09-08T00:05:51.591Z,12.10
2018-09-08T00:08:20.104Z,12.10
2018-09-08T00:10:48.574Z,12.10
2018-09-08T00:13:17.090Z,12.10
2018-09-08T00:15:51.046Z,12.10
2018-09-08T00:18:25.064Z,12.00
2018-09-08T00:20:58.729Z,12.00
2018-09-08T00:23:32.541Z,12.10
2018-09-08T00:26:06.453Z,12.10
2018-09-08T00:28:40.276Z,12.00
2018-09-08T00:31:12.709Z,12.00
2018-09-08T00:33:41.169Z,12.00
2018-09-08T00:36:09.654Z,11.90
2018-09-08T00:38:38.446Z,11.90
2018-09-08T00:41:07.071Z,11.80
2018-09-08T00:43:35.543Z,11.80
2018-09-08T00:46:04.050Z,11.70
2018-09-08T00:48:32.539Z,11.70
2018-09-08T00:51:01.306Z,11.80
2018-09-08T00:53:30.097Z,11.70
2018-09-08T00:55:58.609Z,11.70
2018-09-08T00:58:27.108Z,11.70
2018-09-08T01:00:55.668Z,11.70
2018-09-08T01:03:24.125Z,11.70
2018-09-08T01:05:53.193Z,11.70
2018-09-08T01:08:21.969Z,11.70
2018-09-08T01:10:50.489Z,11.70
2018-09-08T01:13:18.997Z,11.70
2018-09-08T01:15:47.465Z,11.70
2018-09-08T01:18:15.946Z,11.70
2018-09-08T01:20:44.461Z,11.60
2018-09-08T01:23:12.921Z,11.60
2018-09-08T01:25:41.402Z,11.70
2018-09-08T01:28:09.845Z,11.60
2018-09-08T01:30:38.328Z,11.50
2018-09-08T01:33:06.866Z,11.50
2018-09-08T01:35:35.343Z,11.40
2018-09-08T01:38:03.798Z,11.40
2018-09-08T01:40:32.470Z,11.40
2018-09-08T01:43:00.947Z,11.40
2018-09-08T01:45:29.419Z,11.40
2018-09-08T01:47:57.979Z,11.40
2018-09-08T01:50:26.493Z,11.50
2018-09-08T01:52:55.018Z,11.40
2018-09-08T01:55:23.477Z,11.40
2018-09-08T01:57:52.064Z,11.40
2018-09-08T02:00:20.595Z,11.40
2018-09-08T02:02:49.097Z,11.30
2018-09-08T02:05:17.566Z,11.40
2018-09-08T02:07:46.051Z,11.30
2018-09-08T02:10:14.510Z,11.30
2018-09-08T02:12:43.025Z,11.30
2018-09-08T02:15:11.529Z,11.30
2018-09-08T02:17:40.114Z,11.20
2018-09-08T02:20:08.630Z,11.20
2018-09-08T02:22:37.098Z,11.30
2018-09-08T02:25:05.596Z,11.30
2018-09-08T02:27:34.132Z,11.20
2018-09-08T02:30:02.617Z,11.30
2018-09-08T02:32:31.127Z,11.30
2018-09-08T02:34:59.648Z,11.30
2018-09-08T02:37:28.122Z,11.30
2018-09-08T02:39:56.687Z,11.30
2018-09-08T02:42:25.217Z,11.30
2018-09-08T02:44:54.069Z,11.30
2018-09-08T02:47:22.616Z,11.30
2018-09-08T02:50:02.458Z,11.30
2018-09-08T02:52:29.784Z,11.30
2018-09-08T02:54:57.218Z,11.20
2018-09-08T02:57:24.566Z,11.20
2018-09-08T02:59:51.870Z,11.20
2018-09-08T03:02:19.233Z,11.10
2018-09-08T03:04:46.555Z,11.10
2018-09-08T03:07:14.840Z,11.20
2018-09-08T03:09:44.210Z,11.10
2018-09-08T03:12:11.513Z,11.20
2018-09-08T03:14:39.109Z,11.20
2018-09-08T03:17:07.201Z,11.20
2018-09-08T03:19:34.542Z,11.20
2018-09-08T03:22:01.931Z,11.20
2018-09-08T03:24:29.313Z,11.20
2018-09-08T03:26:56.722Z,11.20
2018-09-08T03:29:24.064Z,11.20
2018-09-08T03:31:51.377Z,11.20
2018-09-08T03:34:18.702Z,11.30
2018-09-08T03:36:46.054Z,11.30
2018-09-08T03:39:13.380Z,11.20
2018-09-08T03:41:40.720Z,11.20
2018-09-08T03:44:08.033Z,11.20
2018-09-08T03:46:35.372Z,11.30
2018-09-08T03:49:02.718Z,11.30
2018-09-08T03:51:30.037Z,11.20
2018-09-08T03:53:57.373Z,11.10
2018-09-08T03:56:24.681Z,11.10
2018-09-08T03:58:52.029Z,11.20
2018-09-08T04:01:19.372Z,11.20
2018-09-08T04:03:47.900Z,11.10
2018-09-08T04:06:16.375Z,11.20
2018-09-08T04:08:44.854Z,11.10
2018-09-08T04:11:13.400Z,11.10
2018-09-08T04:13:41.938Z,11.20
2018-09-08T04:16:10.420Z,11.10
2018-09-08T04:18:38.885Z,11.10
2018-09-08T04:21:07.524Z,11.00
2018-09-08T04:23:36.269Z,11.10
2018-09-08T04:26:04.708Z,11.10
2018-09-08T04:28:33.638Z,11.00
2018-09-08T04:31:02.967Z,11.00
2018-09-08T04:33:31.548Z,11.00
2018-09-08T04:36:00.290Z,11.00
2018-09-08T04:38:28.782Z,11.00
2018-09-08T04:40:57.339Z,11.10
2018-09-08T04:43:25.877Z,11.00
2018-09-08T04:45:54.811Z,11.10
2018-09-08T04:48:23.302Z,11.10
2018-09-08T04:50:51.756Z,11.10
2018-09-08T04:53:20.268Z,11.00
2018-09-08T04:55:48.804Z,11.10
2018-09-08T04:58:17.275Z,11.00
2018-09-08T05:00:45.726Z,11.10
2018-09-08T05:03:14.255Z,11.00
2018-09-08T05:05:42.758Z,11.00
2018-09-08T05:08:11.345Z,11.00
2018-09-08T05:10:39.784Z,11.00
2018-09-08T05:13:08.274Z,11.10
2018-09-08T05:15:36.711Z,11.10
2018-09-08T05:18:05.275Z,11.10
2018-09-08T05:20:33.772Z,11.20
2018-09-08T05:23:02.298Z,11.20
2018-09-08T05:25:30.961Z,11.20
2018-09-08T05:27:59.556Z,11.20
2018-09-08T05:30:28.009Z,11.30
2018-09-08T05:32:56.505Z,11.30
2018-09-08T05:35:25.077Z,11.30
2018-09-08T05:37:53.550Z,11.30
2018-09-08T05:40:22.038Z,11.30
2018-09-08T05:42:50.557Z,11.30
2018-09-08T05:45:19.032Z,11.30
2018-09-08T05:47:47.517Z,11.30
2018-09-08T05:50:16.048Z,11.40
2018-09-08T05:52:44.570Z,11.40
2018-09-08T05:55:13.109Z,11.50
2018-09-08T05:57:41.580Z,11.50
2018-09-08T06:00:10.198Z,11.50
2018-09-08T06:02:38.667Z,11.50
2018-09-08T06:05:07.226Z,11.60
2018-09-08T06:07:35.702Z,11.60
2018-09-08T06:10:04.295Z,11.70
2018-09-08T06:12:32.800Z,11.80
2018-09-08T06:15:01.265Z,11.90
2018-09-08T06:17:29.804Z,11.90
2018-09-08T06:19:58.312Z,11.90
2018-09-08T06:22:26.830Z,11.90
2018-09-08T06:24:55.373Z,12.00
2018-09-08T06:27:23.896Z,12.00
2018-09-08T06:29:52.401Z,12.00
2018-09-08T06:32:20.962Z,12.00
2018-09-08T06:34:49.530Z,12.10
2018-09-08T06:37:18.050Z,12.30
2018-09-08T06:39:46.578Z,12.40
2018-09-08T06:42:15.113Z,12.60
2018-09-08T06:44:44.458Z,12.80
2018-09-08T06:47:12.900Z,12.90
2018-09-08T06:49:41.484Z,13.00
2018-09-08T06:52:10.027Z,13.10
2018-09-08T06:54:38.473Z,13.30
2018-09-08T06:57:06.957Z,13.30
2018-09-08T06:59:35.409Z,13.40
2018-09-08T07:02:03.997Z,13.50
2018-09-08T07:04:32.512Z,13.50
2018-09-08T07:07:01.047Z,13.60
2018-09-08T07:09:29.550Z,13.70
2018-09-08T07:11:58.102Z,13.70
2018-09-08T07:14:26.601Z,13.90
2018-09-08T07:16:55.112Z,14.00
2018-09-08T07:19:23.763Z,14.20
2018-09-08T07:21:52.206Z,14.40
2018-09-08T07:24:20.698Z,14.50
2018-09-08T07:26:49.215Z,14.60
2018-09-08T07:29:17.697Z,14.60
2018-09-08T07:31:46.140Z,14.60
2018-09-08T07:34:14.598Z,14.70
2018-09-08T07:36:43.067Z,14.80
2018-09-08T07:39:11.998Z,14.80
2018-09-08T07:41:40.449Z,14.70
2018-09-08T07:44:08.948Z,14.70
2018-09-08T07:46:37.615Z,14.70
2018-09-08T07:49:06.233Z,14.70
2018-09-08T07:51:34.719Z,14.80
2018-09-08T07:54:03.237Z,14.90
2018-09-08T07:56:31.717Z,15.00
2018-09-08T07:59:00.637Z,15.00
2018-09-08T08:01:29.228Z,15.10
2018-09-08T08:03:57.713Z,15.10
2018-09-08T08:06:26.924Z,15.10
2018-09-08T08:08:55.428Z,15.10
2018-09-08T08:11:24.004Z,15.20
2018-09-08T08:13:52.526Z,15.30
2018-09-08T08:16:21.146Z,15.40
2018-09-08T08:18:49.620Z,15.40
2018-09-08T08:21:18.103Z,15.40
2018-09-08T08:23:46.647Z,15.40
2018-09-08T08:26:15.139Z,15.50
2018-09-08T08:28:43.604Z,15.50
2018-09-08T08:31:12.122Z,15.60
2018-09-08T08:33:40.585Z,15.70
2018-09-08T08:36:09.072Z,15.80
2018-09-08T08:38:37.578Z,16.00
2018-09-08T08:41:06.084Z,16.10
2018-09-08T08:43:34.578Z,16.30
2018-09-08T08:46:03.160Z,16.30
2018-09-08T08:48:31.637Z,16.40
2018-09-08T08:51:11.485Z,16.40
2018-09-08T08:53:51.095Z,16.40
2018-09-08T08:56:19.621Z,16.50
2018-09-08T08:58:48.206Z,16.50
2018-09-08T09:01:16.944Z,16.60
2018-09-08T09:03:45.529Z,16.60
2018-09-08T09:06:16.871Z,16.60
2018-09-08T09:08:45.809Z,16.60
2018-09-08T09:11:13.925Z,16.60
2018-09-08T09:13:42.644Z,16.80
2018-09-08T09:16:11.228Z,16.80
2018-09-08T09:18:51.407Z,16.90
2018-09-08T09:21:30.568Z,16.80
2018-09-08T09:25:17.590Z,16.90
2018-09-08T09:27:48.067Z,17.00
2018-09-08T09:30:17.264Z,16.90
2018-09-08T09:32:45.823Z,16.80
2018-09-08T09:35:17.619Z,16.80
2018-09-08T09:37:46.262Z,16.90
2018-09-08T09:40:22.194Z,17.00
2018-09-08T09:42:50.667Z,17.10
2018-09-08T09:45:19.125Z,17.30
2018-09-08T09:47:47.592Z,17.40
2018-09-08T09:50:16.093Z,17.40
2018-09-08T09:52:44.533Z,17.50
2018-09-08T09:55:13.017Z,17.50
2018-09-08T09:57:41.458Z,17.40
2018-09-08T10:00:14.437Z,17.40
2018-09-08T10:02:48.592Z,17.40
2018-09-08T10:05:18.610Z,17.50
2018-09-08T10:07:47.306Z,17.50
2018-09-08T10:10:32.448Z,17.40
2018-09-08T10:13:00.925Z,17.40
2018-09-08T10:15:29.480Z,17.30
2018-09-08T10:17:58.211Z,17.40
2018-09-08T10:20:26.763Z,17.40
2018-09-08T10:22:55.376Z,17.50
2018-09-08T10:25:23.956Z,17.40
2018-09-08T10:27:52.458Z,17.50
2018-09-08T10:30:20.997Z,17.40
2018-09-08T10:32:49.927Z,17.50
2018-09-08T10:35:18.424Z,17.80
2018-09-08T10:37:46.928Z,17.90
2018-09-08T10:40:15.448Z,18.10
2018-09-08T10:42:43.925Z,18.10
2018-09-08T10:45:12.483Z,17.90
2018-09-08T10:54:47.909Z,17.80
2018-09-08T10:57:16.633Z,17.80
2018-09-08T10:59:45.153Z,17.80
2018-09-08T11:02:13.976Z,17.70
2018-09-08T11:04:42.866Z,17.70
2018-09-08T11:07:11.894Z,17.70
2018-09-08T11:09:40.398Z,17.80
2018-09-08T11:12:09.002Z,17.80
2018-09-08T11:14:37.487Z,17.90
2018-09-08T11:17:06.013Z,18.10
2018-09-08T11:19:34.519Z,18.20
2018-09-08T11:22:03.057Z,18.20
2018-09-08T11:24:31.963Z,18.30
2018-09-08T11:27:00.430Z,18.30
2018-09-08T11:29:28.938Z,18.50
2018-09-08T11:31:57.650Z,18.60
2018-09-08T11:34:26.095Z,18.80
2018-09-08T11:36:54.578Z,19.00
2018-09-08T11:39:23.448Z,19.00
2018-09-08T11:41:51.917Z,19.20
2018-09-08T11:44:20.370Z,19.20
2018-09-08T11:46:48.962Z,19.10
2018-09-08T11:49:17.458Z,19.30
2018-09-08T11:51:45.930Z,19.40
2018-09-08T11:54:14.403Z,19.30
2018-09-08T11:56:42.852Z,19.30
2018-09-08T11:59:11.310Z,19.50
2018-09-08T12:01:39.780Z,19.50
2018-09-08T12:04:08.577Z,19.60
2018-09-08T12:06:37.075Z,19.60
2018-09-08T12:09:07.846Z,19.70
2018-09-08T12:11:36.556Z,19.60
2018-09-08T12:14:05.123Z,19.70
2018-09-08T12:16:33.600Z,19.70
2018-09-08T12:19:02.100Z,19.60
2018-09-08T12:21:30.568Z,19.80
2018-09-08T12:23:59.961Z,19.70
2018-09-08T12:26:28.488Z,19.80
2018-09-08T12:28:56.934Z,19.80
2018-09-08T12:31:25.387Z,19.90
2018-09-08T12:33:53.868Z,19.90
2018-09-08T12:36:23.100Z,20.00
2018-09-08T12:38:51.861Z,19.80
2018-09-08T12:41:20.488Z,19.90
2018-09-08T12:43:49.043Z,20.10
2018-09-08T12:46:17.519Z,20.10
2018-09-08T12:48:45.997Z,20.10
2018-09-08T12:51:14.691Z,20.10
2018-09-08T12:53:43.165Z,20.20
2018-09-08T12:56:11.640Z,20.20
2018-09-08T12:58:40.122Z,20.20
2018-09-08T13:01:08.565Z,20.30
2018-09-08T13:03:37.036Z,20.50
2018-09-08T13:06:05.681Z,20.60
2018-09-08T13:08:34.146Z,20.50
2018-09-08T13:11:02.647Z,20.50
2018-09-08T13:13:32.029Z,20.50
2018-09-08T13:16:00.539Z,20.60
2018-09-08T13:18:29.036Z,20.50
2018-09-08T13:20:57.522Z,20.50
2018-09-08T13:23:26.018Z,20.50
2018-09-08T13:25:54.438Z,20.50
2018-09-08T13:28:22.894Z,20.60
2018-09-08T13:30:51.341Z,20.60
2018-09-08T13:33:19.802Z,20.70
2018-09-08T13:35:48.226Z,20.80
2018-09-08T13:38:16.676Z,20.90
2018-09-08T13:40:45.131Z,21.10
2018-09-08T13:43:13.587Z,21.10
2018-09-08T13:45:42.058Z,21.00
2018-09-08T13:48:10.486Z,20.80
2018-09-08T13:50:38.947Z,20.80
2018-09-08T13:53:07.385Z,20.80
2018-09-08T13:55:35.836Z,20.80
2018-09-08T13:58:04.304Z,20.90
2018-09-08T14:00:32.753Z,21.00
2018-09-08T14:03:01.298Z,21.00
2018-09-08T14:05:29.773Z,21.00
2018-09-08T14:08:00.854Z,21.00
2018-09-08T14:10:29.309Z,21.00
2018-09-08T14:12:57.754Z,21.00
2018-09-08T14:15:26.275Z,20.80
2018-09-08T14:17:54.648Z,20.80
2018-09-08T14:20:23.141Z,20.70
2018-09-08T14:22:51.608Z,20.60
2018-09-08T14:25:20.091Z,20.90
2018-09-08T14:27:48.532Z,21.10
2018-09-08T14:30:17.001Z,21.10
2018-09-08T14:32:45.454Z,21.00
2018-09-08T14:35:13.905Z,21.10
2018-09-08T14:37:42.466Z,21.00
2018-09-08T14:40:10.932Z,20.80
2018-09-08T14:42:39.409Z,20.80
2018-09-08T14:45:07.894Z,20.80
2018-09-08T14:47:36.457Z,20.50
2018-09-08T14:50:04.919Z,20.50
2018-09-08T14:52:33.354Z,20.50
2018-09-08T14:55:01.818Z,20.60
2018-09-08T14:57:30.294Z,20.70
2018-09-08T14:59:58.767Z,20.90
2018-09-08T15:02:27.193Z,21.00
2018-09-08T15:04:55.690Z,20.90
2018-09-08T15:07:25.034Z,20.90
2018-09-08T15:09:53.876Z,20.80
2018-09-08T15:12:23.224Z,20.70
2018-09-08T15:14:51.684Z,20.70
2018-09-08T15:17:20.982Z,20.50
2018-09-08T15:19:49.449Z,20.50
2018-09-08T15:22:17.929Z,20.50
2018-09-08T15:24:46.391Z,20.50
2018-09-08T15:27:15.406Z,20.50
2018-09-08T15:29:44.216Z,20.60
2018-09-08T15:32:13.477Z,20.70
2018-09-08T15:34:41.941Z,20.60
2018-09-08T15:37:10.412Z,20.60
2018-09-08T15:39:39.142Z,20.50
2018-09-08T15:42:07.602Z,20.50
2018-09-08T15:44:36.264Z,20.40
2018-09-08T15:47:04.752Z,20.40
2018-09-08T15:49:33.332Z,20.40
2018-09-08T15:52:01.757Z,20.40
2018-09-08T15:54:30.334Z,20.40
2018-09-08T15:56:58.809Z,20.40
2018-09-08T15:59:27.266Z,20.40
2018-09-08T16:01:55.748Z,20.30
2018-09-08T16:04:24.201Z,20.20
2018-09-08T16:06:53.027Z,20.20
2018-09-08T16:09:21.470Z,20.20
2018-09-08T16:11:49.945Z,20.20
2018-09-08T16:14:18.420Z,20.20
2018-09-08T16:16:46.878Z,20.10
2018-09-08T16:19:15.330Z,20.10
2018-09-08T16:21:43.901Z,20.10
2018-09-08T16:24:12.358Z,20.10
2018-09-08T16:26:40.850Z,20.10
2018-09-08T16:29:09.313Z,20.00
2018-09-08T16:31:37.737Z,19.90
2018-09-08T16:34:06.578Z,19.90
2018-09-08T16:36:35.011Z,19.90
2018-09-08T16:39:03.627Z,19.90
2018-09-08T16:41:32.097Z,19.90
2018-09-08T16:44:00.613Z,19.90
2018-09-08T16:46:29.081Z,19.80
2018-09-08T16:48:57.527Z,19.80
2018-09-08T16:51:25.997Z,19.80
2018-09-08T16:53:54.560Z,19.80
2018-09-08T16:56:23.042Z,19.80
2018-09-08T16:58:51.486Z,19.70
2018-09-08T17:01:19.989Z,19.60
2018-09-08T17:03:48.505Z,19.60
2018-09-08T17:06:17.221Z,19.50
2018-09-08T17:08:45.674Z,19.50
2018-09-08T17:11:14.100Z,19.40
2018-09-08T17:13:42.562Z,19.30
2018-09-08T17:16:10.991Z,19.30
2018-09-08T17:18:39.451Z,19.20
2018-09-08T17:21:07.948Z,19.10
2018-09-08T17:23:36.414Z,19.10
2018-09-08T17:26:04.886Z,19.10
2018-09-08T17:28:34.012Z,19.10
2018-09-08T17:31:02.486Z,19.10
2018-09-08T17:33:30.910Z,19.00
2018-09-08T17:35:59.343Z,18.90
2018-09-08T17:38:27.854Z,18.80
2018-09-08T17:40:56.360Z,18.70
2018-09-08T17:43:24.820Z,18.70
2018-09-08T17:54:31.199Z,18.40
2018-09-08T17:56:59.742Z,18.30
